Martin Berraondo, Argentina
Current Conditions -  °F | °C
As of 6:00 PM on Tuesday 21 Oct 2014 (Local Time) from SAEZ Reporting Station
Clear Clear  
Wind Chill: 82°   Ceiling: Unl
Heat Index: 82°   Visibility: 5mi
Dew Point: 54°   Wind: 9mph
Humidity: 37%   Direction: 360°N
Pressure: 30"   Gusts: NA
Location:  35.32°S, 59.95°W
Report Text: SAEZ 212100Z 36008KT 320V040 8000 NSC 28/12 Q1016
Loading
Personal Weather Stations






























Interactive Weather Map New forecast layout! Learn more

10-Day Weather Forecast

Advertisements
Track Severe Weather on mobile